createdAt,value
2022-11-29T00:01:39.420Z,-3.30
2022-11-29T00:04:07.626Z,-3.40
2022-11-29T00:06:36.019Z,-3.50
2022-11-29T00:09:07.220Z,-3.40
2022-11-29T00:11:56.437Z,-3.40
2022-11-29T00:14:25.683Z,-3.40
2022-11-29T00:16:56.609Z,-3.40
2022-11-29T00:19:24.573Z,-3.40
2022-11-29T00:21:52.483Z,-3.40
2022-11-29T00:24:20.668Z,-3.40
2022-11-29T00:26:48.762Z,-3.40
2022-11-29T00:29:17.081Z,-3.20
2022-11-29T00:31:45.379Z,-3.40
2022-11-29T00:34:13.442Z,-3.40
2022-11-29T00:36:41.790Z,-3.40
2022-11-29T00:39:12.157Z,-3.40
2022-11-29T00:41:40.128Z,-3.40
2022-11-29T00:44:08.528Z,-3.40
2022-11-29T00:46:36.738Z,-3.40
2022-11-29T00:49:05.095Z,-3.40
2022-11-29T00:51:33.028Z,-3.40
2022-11-29T00:54:01.068Z,-3.30
2022-11-29T00:56:29.910Z,-3.30
2022-11-29T00:58:58.618Z,-3.20
2022-11-29T01:01:26.368Z,-3.20
2022-11-29T01:03:54.061Z,-3.10
2022-11-29T01:06:21.748Z,-3.20
2022-11-29T01:08:50.142Z,-3.10
2022-11-29T01:11:24.081Z,-3.10
2022-11-29T01:13:55.431Z,-3.10
2022-11-29T01:16:23.482Z,-3.10
2022-11-29T01:18:51.429Z,-3.10
2022-11-29T01:21:22.187Z,-3.20
2022-11-29T01:23:52.804Z,-3.20
2022-11-29T01:26:23.788Z,-3.10
2022-11-29T01:28:53.831Z,-3.10
2022-11-29T01:31:31.369Z,-3.10
2022-11-29T01:34:01.940Z,-3.10
2022-11-29T01:36:30.262Z,-3.20
2022-11-29T01:39:00.745Z,-3.10
2022-11-29T01:41:31.475Z,-3.10
2022-11-29T01:44:04.239Z,-3.10
2022-11-29T01:46:37.612Z,-3.10
2022-11-29T01:49:10.077Z,-3.10
2022-11-29T01:51:40.480Z,-3.20
2022-11-29T01:54:10.083Z,-3.20
2022-11-29T01:56:39.280Z,-3.10
2022-11-29T01:59:11.515Z,-3.00
2022-11-29T02:01:39.541Z,-3.00
2022-11-29T02:04:07.477Z,-3.00
2022-11-29T02:06:36.882Z,-3.00
2022-11-29T02:09:05.622Z,-2.90
2022-11-29T02:11:57.131Z,-3.00
2022-11-29T02:14:50.127Z,-2.90
2022-11-29T02:17:34.192Z,-2.90
2022-11-29T02:20:23.857Z,-2.80
2022-11-29T02:23:06.652Z,-2.70
2022-11-29T02:26:12.277Z,-2.50
2022-11-29T02:28:58.275Z,-2.40
2022-11-29T02:31:53.973Z,-2.30
2022-11-29T02:34:52.815Z,-2.30
2022-11-29T02:37:42.213Z,-2.20
2022-11-29T02:40:26.949Z,-2.30
2022-11-29T02:43:10.089Z,-2.20
2022-11-29T02:46:18.284Z,-2.10
2022-11-29T02:49:12.943Z,-2.10
2022-11-29T02:51:58.763Z,-2.00
2022-11-29T02:54:35.654Z,-2.00
2022-11-29T02:57:40.375Z,-1.90
2022-11-29T03:00:18.618Z,-1.90
2022-11-29T03:02:52.121Z,-2.00
2022-11-29T03:05:36.926Z,-1.90
2022-11-29T03:08:15.464Z,-1.90
2022-11-29T03:11:11.024Z,-2.00
2022-11-29T03:13:56.104Z,-1.80
2022-11-29T03:16:30.611Z,-1.90
2022-11-29T03:19:30.260Z,-2.00
2022-11-29T03:22:12.953Z,-2.00
2022-11-29T03:25:02.796Z,-1.90
2022-11-29T03:27:59.552Z,-1.80
2022-11-29T03:30:32.732Z,-1.90
2022-11-29T03:33:30.722Z,-1.90
2022-11-29T03:36:30.217Z,-1.80
2022-11-29T03:39:04.615Z,-1.70
2022-11-29T03:41:59.849Z,-1.60
2022-11-29T03:45:14.635Z,-1.70
2022-11-29T03:48:11.836Z,-1.70
2022-11-29T03:50:56.472Z,-1.50
2022-11-29T03:53:40.031Z,-1.50
2022-11-29T03:56:37.146Z,-1.60
2022-11-29T03:59:33.609Z,-1.40
2022-11-29T04:02:27.194Z,-1.30
2022-11-29T04:05:12.831Z,-1.20
2022-11-29T04:08:11.370Z,-1.20
2022-11-29T04:11:06.015Z,-1.20
2022-11-29T04:13:55.851Z,-1.30
2022-11-29T04:16:51.664Z,-1.20
2022-11-29T04:19:53.087Z,-1.10
2022-11-29T04:23:03.582Z,-1.20
2022-11-29T04:25:49.218Z,-1.20
2022-11-29T04:28:31.927Z,-1.10
2022-11-29T04:31:13.525Z,-1.00
2022-11-29T04:33:47.391Z,-1.00
2022-11-29T04:36:57.475Z,-1.00
2022-11-29T04:40:03.855Z,-1.00
2022-11-29T04:42:43.019Z,-1.10
2022-11-29T04:45:46.481Z,-1.10
2022-11-29T04:48:35.890Z,-1.10
2022-11-29T04:51:16.033Z,-1.00
2022-11-29T04:54:06.784Z,-1.00
2022-11-29T04:56:49.694Z,-0.90
2022-11-29T04:59:44.666Z,-0.90
2022-11-29T05:02:37.460Z,-0.90
2022-11-29T05:05:42.858Z,-0.90
2022-11-29T05:08:47.188Z,-0.90
2022-11-29T05:11:24.998Z,-0.90
2022-11-29T05:14:48.354Z,-1.00
2022-11-29T05:17:22.140Z,-1.10
2022-11-29T05:20:24.588Z,-1.20
2022-11-29T05:22:52.319Z,-1.10
2022-11-29T05:25:35.429Z,-0.90
2022-11-29T05:28:12.767Z,-0.90
2022-11-29T05:31:18.428Z,-0.90
2022-11-29T05:33:52.264Z,-0.90
2022-11-29T05:36:43.596Z,-0.90
2022-11-29T05:39:38.773Z,-0.80
2022-11-29T05:42:30.321Z,-0.90
2022-11-29T05:45:16.782Z,-0.80
2022-11-29T05:47:53.563Z,-0.80
2022-11-29T05:50:37.810Z,-0.80
2022-11-29T05:53:17.608Z,-0.70
2022-11-29T05:56:07.033Z,-0.70
2022-11-29T05:58:48.182Z,-0.70
2022-11-29T06:01:26.801Z,-0.60
2022-11-29T06:04:02.068Z,-0.60
2022-11-29T06:06:55.187Z,-0.50
2022-11-29T06:09:44.435Z,-0.50
2022-11-29T06:12:24.139Z,-0.40
2022-11-29T06:15:04.033Z,-0.40
2022-11-29T06:17:53.224Z,-0.40
2022-11-29T06:20:57.540Z,-0.30
2022-11-29T06:24:24.823Z,-0.40
2022-11-29T06:27:30.002Z,-0.30
2022-11-29T06:30:03.741Z,-0.40
2022-11-29T06:32:44.595Z,-0.30
2022-11-29T06:35:35.688Z,-0.20
2022-11-29T06:38:22.697Z,-0.30
2022-11-29T06:40:51.228Z,-0.20
2022-11-29T06:43:19.122Z,-0.20
2022-11-29T06:45:51.500Z,-0.10
2022-11-29T06:48:28.361Z,-0.10
2022-11-29T06:51:38.163Z,-0.10
2022-11-29T06:54:27.570Z,-0.30
2022-11-29T06:57:09.137Z,-0.10
2022-11-29T07:00:02.411Z,0.00
2022-11-29T07:02:59.475Z,0.10
2022-11-29T07:05:32.603Z,0.20
2022-11-29T07:08:07.041Z,0.20
2022-11-29T07:10:38.188Z,0.20
2022-11-29T07:13:06.670Z,0.30
2022-11-29T07:15:39.776Z,0.30
2022-11-29T07:18:26.952Z,0.40
2022-11-29T07:21:06.997Z,0.50
2022-11-29T07:23:44.419Z,0.50
2022-11-29T07:26:16.057Z,0.40
2022-11-29T07:29:09.037Z,0.40
2022-11-29T07:31:52.052Z,0.40
2022-11-29T07:34:35.134Z,0.40
2022-11-29T07:37:07.803Z,0.50
2022-11-29T07:39:54.883Z,0.60
2022-11-29T07:42:30.403Z,0.90
2022-11-29T07:45:38.054Z,1.00
2022-11-29T07:48:10.830Z,1.00
2022-11-29T07:50:40.250Z,1.20
2022-11-29T07:53:20.557Z,1.20
2022-11-29T07:55:49.976Z,1.30
2022-11-29T07:58:18.799Z,1.40
2022-11-29T08:00:47.552Z,1.40
2022-11-29T08:03:15.727Z,1.40
2022-11-29T08:05:47.652Z,1.30
2022-11-29T08:08:15.936Z,1.40
2022-11-29T08:10:44.180Z,1.20
2022-11-29T08:13:14.959Z,0.90
2022-11-29T08:15:47.005Z,1.20
2022-11-29T08:18:16.557Z,1.70
2022-11-29T08:20:46.526Z,1.60
2022-11-29T08:23:15.289Z,2.30
2022-11-29T08:25:43.385Z,2.10
2022-11-29T08:28:11.655Z,2.40
2022-11-29T08:30:42.880Z,4.40
2022-11-29T08:33:11.582Z,8.90
2022-11-29T08:35:40.244Z,10.60
2022-11-29T08:38:08.213Z,12.20
2022-11-29T08:40:36.375Z,12.20
2022-11-29T08:43:04.489Z,11.40
2022-11-29T08:45:32.964Z,16.10
2022-11-29T08:48:01.352Z,14.10
2022-11-29T08:50:29.752Z,17.30
2022-11-29T08:53:20.980Z,18.40
2022-11-29T08:55:49.499Z,16.00
2022-11-29T08:58:17.394Z,19.50
2022-11-29T09:00:48.239Z,20.80
2022-11-29T09:03:34.644Z,21.90
2022-11-29T09:06:11.992Z,24.00
2022-11-29T09:08:43.660Z,24.30
2022-11-29T09:11:14.848Z,19.70
2022-11-29T09:13:44.320Z,18.50
2022-11-29T09:16:16.095Z,19.80
2022-11-29T09:18:50.049Z,22.20
2022-11-29T09:21:19.429Z,23.10
2022-11-29T09:23:47.047Z,22.00
2022-11-29T09:26:20.384Z,23.60
2022-11-29T09:28:48.508Z,22.50
2022-11-29T09:31:17.218Z,22.90
2022-11-29T09:33:46.327Z,20.40
2022-11-29T09:36:14.506Z,21.20
2022-11-29T09:38:42.545Z,23.60
2022-11-29T09:41:52.046Z,21.10
2022-11-29T09:44:31.648Z,24.90
2022-11-29T09:47:14.558Z,22.10
2022-11-29T09:49:49.267Z,25.30
2022-11-29T09:52:34.552Z,26.30
2022-11-29T09:55:23.700Z,26.60
2022-11-29T09:57:53.516Z,27.30
2022-11-29T10:00:21.558Z,26.60
2022-11-29T10:03:13.238Z,22.20
2022-11-29T10:05:47.597Z,22.30
2022-11-29T10:08:42.241Z,24.50
2022-11-29T10:11:15.964Z,23.80
2022-11-29T10:13:49.270Z,21.20
2022-11-29T10:16:44.191Z,22.10
2022-11-29T10:19:20.826Z,24.00
2022-11-29T10:22:02.594Z,23.30
2022-11-29T10:24:31.907Z,24.10
2022-11-29T10:27:00.253Z,23.00
2022-11-29T10:29:27.984Z,23.20
2022-11-29T10:31:57.361Z,20.80
2022-11-29T10:34:26.602Z,22.70
2022-11-29T10:37:00.313Z,22.50
2022-11-29T10:39:40.238Z,23.10
2022-11-29T10:42:35.684Z,23.20
2022-11-29T10:45:05.734Z,22.70
2022-11-29T10:47:33.883Z,23.00
2022-11-29T10:50:01.698Z,22.20
2022-11-29T10:52:29.728Z,21.70
2022-11-29T10:54:59.864Z,19.90
2022-11-29T10:57:28.032Z,17.60
2022-11-29T11:00:11.831Z,16.40
2022-11-29T11:02:39.765Z,16.40
2022-11-29T11:05:19.062Z,18.30
2022-11-29T11:07:57.709Z,15.30
2022-11-29T11:10:31.298Z,14.70
2022-11-29T11:13:19.378Z,13.00
2022-11-29T11:15:47.476Z,12.50
2022-11-29T11:18:23.974Z,10.70
2022-11-29T11:20:59.520Z,10.10
2022-11-29T11:23:37.428Z,9.10
2022-11-29T11:26:09.013Z,9.00
2022-11-29T11:28:51.836Z,8.70
2022-11-29T11:31:27.331Z,8.50
2022-11-29T11:33:55.163Z,8.70
2022-11-29T11:36:27.878Z,8.90
2022-11-29T11:38:55.923Z,9.00
2022-11-29T11:41:23.963Z,9.20
2022-11-29T11:44:00.529Z,9.30
2022-11-29T11:46:49.982Z,10.30
2022-11-29T11:49:47.525Z,10.00
2022-11-29T11:52:22.788Z,9.70
2022-11-29T11:55:22.983Z,9.60
2022-11-29T11:58:16.047Z,9.50
2022-11-29T12:01:05.676Z,9.60
2022-11-29T12:04:00.037Z,9.50
2022-11-29T12:06:57.103Z,9.20
2022-11-29T12:09:27.731Z,9.10
2022-11-29T12:12:10.755Z,8.90
2022-11-29T12:14:43.446Z,8.90
2022-11-29T12:17:33.066Z,8.50
2022-11-29T12:20:15.369Z,8.70
2022-11-29T12:22:49.243Z,8.40
2022-11-29T12:25:34.494Z,8.40
2022-11-29T12:28:02.235Z,8.00
2022-11-29T12:30:31.604Z,7.80
2022-11-29T12:33:24.341Z,7.60
2022-11-29T12:35:58.368Z,7.70
2022-11-29T12:38:44.319Z,7.80
2022-11-29T12:41:33.815Z,7.30
2022-11-29T12:44:37.373Z,8.50
2022-11-29T12:47:52.770Z,8.90
2022-11-29T12:50:52.615Z,9.50
2022-11-29T12:53:45.203Z,9.50
2022-11-29T12:56:25.144Z,8.60
2022-11-29T12:59:28.208Z,8.90
2022-11-29T13:02:13.579Z,9.20
2022-11-29T13:04:44.294Z,9.40
2022-11-29T13:07:21.602Z,9.60
2022-11-29T13:10:04.899Z,9.70
2022-11-29T13:12:44.851Z,9.20
2022-11-29T13:15:17.284Z,9.60
2022-11-29T13:18:01.398Z,9.30
2022-11-29T13:20:50.549Z,8.90
2022-11-29T13:24:00.364Z,8.50
2022-11-29T13:26:23.135Z,7.70
2022-11-29T13:28:51.293Z,7.10
2022-11-29T13:31:22.378Z,6.60
2022-11-29T13:34:04.268Z,6.40
2022-11-29T13:36:45.991Z,6.10
2022-11-29T13:39:35.923Z,5.40
2022-11-29T13:42:22.304Z,4.80
2022-11-29T13:45:05.197Z,4.80
2022-11-29T13:47:33.105Z,4.70
2022-11-29T13:50:26.962Z,4.00
2022-11-29T13:53:13.098Z,3.40
2022-11-29T13:55:51.518Z,3.40
2022-11-29T13:58:19.294Z,3.60
2022-11-29T14:00:50.267Z,3.50
2022-11-29T14:03:24.552Z,3.30
2022-11-29T14:06:00.575Z,3.10
2022-11-29T14:08:55.083Z,2.90
2022-11-29T14:11:32.310Z,2.90
2022-11-29T14:14:03.350Z,2.70
2022-11-29T14:16:42.313Z,2.70
2022-11-29T14:19:10.765Z,2.60
2022-11-29T14:22:05.423Z,2.40
2022-11-29T14:24:36.121Z,2.10
2022-11-29T14:27:07.575Z,2.10
2022-11-29T14:29:50.582Z,2.00
2022-11-29T14:32:49.682Z,2.10
2022-11-29T14:35:46.442Z,2.00
2022-11-29T14:38:42.603Z,1.90
2022-11-29T14:41:49.150Z,1.80
2022-11-29T14:44:22.764Z,1.70
2022-11-29T14:47:03.992Z,1.60
2022-11-29T14:49:40.256Z,1.50
2022-11-29T14:52:09.939Z,1.50
2022-11-29T14:54:54.407Z,1.40
2022-11-29T14:57:58.250Z,1.10
2022-11-29T15:00:47.214Z,1.00
2022-11-29T15:03:21.842Z,0.90
2022-11-29T15:06:08.631Z,0.90
2022-11-29T15:08:47.895Z,0.90
2022-11-29T15:11:27.855Z,0.80
2022-11-29T15:14:11.778Z,0.70
2022-11-29T15:17:17.997Z,0.60
2022-11-29T15:20:18.459Z,0.60
2022-11-29T15:22:48.734Z,0.50
2022-11-29T15:25:31.128Z,0.50
2022-11-29T15:28:01.072Z,0.40
2022-11-29T15:30:38.726Z,0.40
2022-11-29T15:33:21.747Z,0.30
2022-11-29T15:35:53.162Z,0.30
2022-11-29T15:38:22.705Z,0.20
2022-11-29T15:40:55.969Z,0.10
2022-11-29T15:43:35.875Z,0.00
2022-11-29T15:46:05.251Z,-0.10
2022-11-29T15:48:39.528Z,-0.20
2022-11-29T15:51:29.450Z,-0.30
2022-11-29T15:54:13.557Z,-0.40
2022-11-29T15:56:55.493Z,-0.50
2022-11-29T15:59:38.246Z,-0.40
2022-11-29T16:02:14.396Z,-0.40
2022-11-29T16:04:49.274Z,-0.40
2022-11-29T16:07:22.151Z,-0.50
2022-11-29T16:10:06.138Z,-0.80
2022-11-29T16:12:35.808Z,-0.70
2022-11-29T16:15:05.454Z,-0.70
2022-11-29T16:17:36.393Z,-0.80
2022-11-29T16:20:28.909Z,-0.80
2022-11-29T16:23:18.855Z,-0.90
2022-11-29T16:26:06.024Z,-0.90
2022-11-29T16:28:41.127Z,-0.90
2022-11-29T16:31:12.491Z,-1.00
2022-11-29T16:33:44.912Z,-1.00
2022-11-29T16:36:24.476Z,-1.00
2022-11-29T16:38:55.552Z,-1.00
2022-11-29T16:42:11.825Z,-1.00
2022-11-29T16:44:47.397Z,-1.10
2022-11-29T16:47:23.291Z,-1.10
2022-11-29T16:50:04.378Z,-1.10
2022-11-29T16:52:34.444Z,-1.10
2022-11-29T16:55:02.542Z,-1.20
2022-11-29T16:57:31.958Z,-1.20
2022-11-29T17:00:00.040Z,-1.40
2022-11-29T17:02:30.413Z,-1.30
2022-11-29T17:04:59.595Z,-1.30
2022-11-29T17:07:32.163Z,-1.30
2022-11-29T17:10:01.087Z,-1.30
2022-11-29T17:12:29.317Z,-1.40
2022-11-29T17:14:58.880Z,-1.50
2022-11-29T17:17:27.691Z,-1.50
2022-11-29T17:19:55.724Z,-1.40
2022-11-29T17:22:24.587Z,-1.40
2022-11-29T17:24:53.713Z,-1.40
2022-11-29T17:27:22.108Z,-1.40
2022-11-29T17:29:50.612Z,-1.40
2022-11-29T17:32:23.264Z,-1.40
2022-11-29T17:34:55.036Z,-1.50
2022-11-29T17:37:23.745Z,-1.50
2022-11-29T17:39:52.843Z,-1.50
2022-11-29T17:42:21.377Z,-1.50
2022-11-29T17:44:50.012Z,-1.60
2022-11-29T17:47:18.774Z,-1.60
2022-11-29T17:49:47.720Z,-1.60
2022-11-29T17:52:16.085Z,-1.60
2022-11-29T17:54:44.635Z,-1.60
2022-11-29T17:57:13.292Z,-1.70
2022-11-29T17:59:41.645Z,-1.70
2022-11-29T18:02:13.381Z,-1.70
2022-11-29T18:04:43.354Z,-1.80
2022-11-29T18:07:13.434Z,-1.80
2022-11-29T18:09:42.375Z,-1.80
2022-11-29T18:12:10.712Z,-1.80
2022-11-29T18:14:39.350Z,-1.80
2022-11-29T18:17:07.885Z,-1.90
2022-11-29T18:19:36.174Z,-1.90
2022-11-29T18:22:04.663Z,-2.00
2022-11-29T18:24:33.072Z,-2.00
2022-11-29T18:27:01.376Z,-1.80
2022-11-29T18:29:32.757Z,-1.90
2022-11-29T18:32:05.733Z,-2.00
2022-11-29T18:34:33.684Z,-2.00
2022-11-29T18:37:01.835Z,-2.00
2022-11-29T18:39:31.018Z,-2.10
2022-11-29T18:41:58.966Z,-2.10
2022-11-29T18:44:31.188Z,-2.10
2022-11-29T18:46:59.444Z,-2.20
2022-11-29T18:49:27.443Z,-2.20
2022-11-29T18:51:56.292Z,-2.20
2022-11-29T18:54:24.971Z,-2.30
2022-11-29T18:56:53.355Z,-2.20
2022-11-29T18:59:23.478Z,-2.20
2022-11-29T19:01:52.508Z,-2.20
2022-11-29T19:04:21.718Z,-2.30
2022-11-29T19:06:50.497Z,-2.30
2022-11-29T19:09:21.588Z,-2.30
2022-11-29T19:11:50.493Z,-2.40
2022-11-29T19:14:19.434Z,-2.30
2022-11-29T19:16:49.361Z,-2.40
2022-11-29T19:19:24.804Z,-2.40
2022-11-29T19:22:08.181Z,-2.30
2022-11-29T19:24:43.522Z,-2.30
2022-11-29T19:27:12.821Z,-2.40
2022-11-29T19:29:42.657Z,-2.40
2022-11-29T19:32:14.539Z,-2.60
2022-11-29T19:34:47.973Z,-2.60
2022-11-29T19:37:19.573Z,-2.50
2022-11-29T19:39:51.731Z,-2.50
2022-11-29T19:42:23.403Z,-2.50
2022-11-29T19:45:15.837Z,-2.50
2022-11-29T19:47:42.124Z,-2.60
2022-11-29T19:50:11.268Z,-2.60
2022-11-29T19:52:42.686Z,-2.60
2022-11-29T19:55:14.160Z,-2.60
2022-11-29T19:57:42.737Z,-2.60
2022-11-29T20:00:11.573Z,-2.70
2022-11-29T20:02:43.004Z,-2.70
2022-11-29T20:05:13.690Z,-2.70
2022-11-29T20:07:42.310Z,-2.70
2022-11-29T20:10:10.774Z,-2.80
2022-11-29T20:12:39.130Z,-2.80
2022-11-29T20:15:10.236Z,-2.70
2022-11-29T20:17:38.027Z,-2.80
2022-11-29T20:20:09.415Z,-2.80
2022-11-29T20:22:37.981Z,-2.80
2022-11-29T20:25:06.179Z,-2.80
2022-11-29T20:27:35.009Z,-2.80
2022-11-29T20:30:03.420Z,-2.80
2022-11-29T20:32:31.728Z,-2.80
2022-11-29T20:35:02.708Z,-2.80
2022-11-29T20:38:00.370Z,-2.90
2022-11-29T20:41:01.036Z,-2.80
2022-11-29T20:43:43.799Z,-2.80
2022-11-29T20:46:13.260Z,-2.90
2022-11-29T20:48:43.924Z,-2.90
2022-11-29T20:51:17.450Z,-2.90
2022-11-29T20:53:51.252Z,-3.00
2022-11-29T20:56:23.202Z,-3.10
2022-11-29T20:58:51.960Z,-3.00
2022-11-29T21:01:23.671Z,-3.10
2022-11-29T21:03:56.025Z,-3.10
2022-11-29T21:06:24.473Z,-3.10
2022-11-29T21:08:52.891Z,-3.10
2022-11-29T21:11:21.095Z,-3.10
2022-11-29T21:13:49.261Z,-3.10
2022-11-29T21:16:17.404Z,-3.10
2022-11-29T21:18:45.685Z,-3.10
2022-11-29T21:21:25.399Z,-3.10
2022-11-29T21:24:23.939Z,-3.20
2022-11-29T21:26:52.879Z,-3.20
2022-11-29T21:29:22.521Z,-3.20
2022-11-29T21:31:53.219Z,-3.20
2022-11-29T21:34:21.869Z,-3.30
2022-11-29T21:36:59.309Z,-3.20
2022-11-29T21:39:32.619Z,-3.30
2022-11-29T21:42:00.544Z,-3.30
2022-11-29T21:44:28.431Z,-3.30
2022-11-29T21:46:56.292Z,-3.30
2022-11-29T21:49:24.237Z,-3.30
2022-11-29T21:51:52.418Z,-3.40
2022-11-29T21:54:20.054Z,-3.50
2022-11-29T21:56:47.826Z,-3.50
2022-11-29T21:59:15.575Z,-3.50
2022-11-29T22:01:43.414Z,-3.60
2022-11-29T22:04:12.304Z,-3.50
2022-11-29T22:06:40.024Z,-3.50
2022-11-29T22:09:08.148Z,-3.50
2022-11-29T22:11:36.061Z,-3.50
2022-11-29T22:14:32.174Z,-3.50
2022-11-29T22:24:36.323Z,-3.60
2022-11-29T22:27:04.421Z,-3.60
2022-11-29T22:29:32.234Z,-3.60
2022-11-29T22:32:01.347Z,-3.70
2022-11-29T22:34:29.400Z,-3.70
2022-11-29T22:36:57.073Z,-3.80
2022-11-29T22:39:25.207Z,-3.70
2022-11-29T22:41:54.945Z,-3.70
2022-11-29T22:44:24.292Z,-3.70
2022-11-29T22:46:52.611Z,-3.70
2022-11-29T22:49:20.825Z,-3.70
2022-11-29T22:51:48.663Z,-3.70
2022-11-29T22:54:16.827Z,-3.70
2022-11-29T22:56:45.670Z,-3.70
2022-11-29T22:59:13.699Z,-3.70
2022-11-29T23:01:42.893Z,-3.80
2022-11-29T23:04:12.445Z,-3.90
2022-11-29T23:06:44.984Z,-3.80
2022-11-29T23:09:20.387Z,-3.80
2022-11-29T23:11:53.715Z,-3.80
2022-11-29T23:14:22.376Z,-3.80
2022-11-29T23:16:50.065Z,-3.80
2022-11-29T23:19:18.200Z,-3.80
2022-11-29T23:22:04.990Z,-3.80
2022-11-29T23:24:33.037Z,-3.70
2022-11-29T23:27:01.190Z,-3.80
2022-11-29T23:29:28.849Z,-3.80
2022-11-29T23:31:56.499Z,-3.80
2022-11-29T23:34:24.237Z,-3.80
2022-11-29T23:36:53.283Z,-3.80
2022-11-29T23:39:21.570Z,-4.00
2022-11-29T23:41:49.415Z,-3.90
2022-11-29T23:44:17.038Z,-3.90
2022-11-29T23:46:44.802Z,-3.80
2022-11-29T23:49:12.751Z,-3.80
2022-11-29T23:51:40.421Z,-3.80
2022-11-29T23:54:08.232Z,-3.90
2022-11-29T23:56:35.867Z,-3.90
2022-11-29T23:59:03.924Z,-3.90
